AirNav   Duncan Aviation - Near you to keep you flying
 
 1086 users online  

CD06 Centennial Healthcare Plaza Heliport
Englewood, Colorado, USA

GOING TO ENGLEWOOD?


FAA INFORMATION EFFECTIVE 08 SEPTEMBER 2022

Location

FAA Identifier: CD06
Lat/Long: 39-35-40.3200N 104-49-24.6500W
39-35.672000N 104-49.410833W
39.5945333,-104.8235139
(estimated)
Elevation: 5680 ft. / 1731 m (estimated)
Variation: 11E (1985)
From city: 2 miles E of ENGLEWOOD, CO
Time zone: UTC -6 (UTC -7 during Standard Time)
Zip code: 80112

Heliport Operations

Heliport use: Private use, MEDICAL USE.
Activation date: 02/1987
Control tower: no
ARTCC: DENVER CENTER
FSS: DENVER FLIGHT SERVICE STATION
Attendance: CONTINUOUS
Wind indicator: yes
Segmented circle: no

Heliport Communications

WX ASOS at APA (1.9 nm SW): PHONE 720-873-2799
WX AWOS-3 at CFO (17 nm NE): 119.025 (303-261-9104)
WX ASOS at DEN (17 nm NE): PHONE 303-342-1920

Nearby radio navigation aids

VOR radial/distance  VOR name  Freq  Var
FQFr227/11.0FALCON VORTAC116.3011E
DENr202/15.1DENVER VOR/DME117.9008E
DVVr199/20.2MILE HIGH VORTAC114.7008E
BJCr132/24.0JEFFCO VOR/DME115.4011E
BRKr339/40.0BLACK FOREST VOR/DME112.5008E

Heliport Services

Runway Information

Helipad H1

Dimensions: 80 x 30 ft. / 24 x 9 m
Surface: concrete
Latitude: 39-35.672000N
Longitude: 104-49.410833W
Elevation: 5680.0 ft.
Traffic pattern: leftleft

Heliport Ownership and Management from official FAA records

Ownership: Privately-owned
Owner: P/SL HEALTHCARE SYSTEM
14200 E ARAPHOE RD
ENGLEWOOD, CO 80112
Phone 303-699-3055
Manager: DR. JAMES C. MC SHANE
14200 E ARAPHOE RD
ENGLEWOOD, CO 80112
Phone 303-699-3055

Additional Remarks

A52-H1 50' PLINE 230' N & 60' BLDG 280' SW & 20' BLDG 40' SW.
FOR CD CTC DENVER APCH AT 303-342-1916.

Instrument Procedures

There are no published instrument procedures at CD06.

Some nearby airports with instrument procedures:

KAPA - Centennial Airport (2 nm SW)
KBKF - Buckley Space Force Base (7 nm NE)
KCFO - Colorado Air and Space Port Airport (17 nm NE)
KDEN - Denver International Airport (17 nm NE)
KBJC - Rocky Mountain Metro Airport (23 nm NW)
 
Loc | Ops | Rwys | IFR | FBO | Links
Com | Nav | Svcs | Stats | Notes

AirBoss

 
Area around CD06 (Centennial Healthcare Plaza Heliport)
 
Road maps at: MapQuest Bing Google
 
Aerial photo
No photo
 
Sectional chart

 
Airport distance calculator
Flying to Centennial Healthcare Plaza Heliport? Find the distance to fly.

From to CD06

Sunrise and sunset
Times for 24-Sep-2022
 Local
(UTC-6)
 Zulu
(UTC)
Morning civil twilight06:2312:23
Sunrise06:5012:50
Sunset18:5300:53
Evening civil twilight19:2001:20

Current date and time
Zulu (UTC)  24-Sep-2022 21:50:04
Local (UTC-6)  24-Sep-2022 15:50:04
 
METAR
KAPA 
2nm SW 
242053Z 33006KT 10SM FEW120 26/M04 A3020 RMK AO2 SLP172 T02561044 56014
KBKF 
8nm NE 
242058Z 07008KT 10SM FEW090 27/M05 A3019 RMK AO2A SLP161 T02721047 57014
KDEN 
16nm NE 
242053Z 05005KT 10SM FEW100 27/M05 A3018 RMK AO2 SLP148 T02721050 57014
KCFO 
17nm NE 
242047Z 34006KT 10SM SKC 29/M09 A3020
TAF
KAPA 
2nm SW 
241740Z 2418/2518 VRB05KT P6SM FEW100 FEW220 FM242200 08006KT P6SM FEW220 FM250700 01006KT P6SM FEW220 FM251100 19006KT P6SM SKC FM251700 04006KT P6SM SKC
KBKF 
8nm NE 
241700Z 2417/2523 VRB06KT 9999 SKC 510023 QNH3021INS TX24/2422Z TN07/2512Z
KDEN 
16nm NE 
241740Z 2418/2524 27006KT P6SM FEW100 FEW220 FM242000 05007KT P6SM FEW100 FEW220 FM250000 09006KT P6SM FEW220 FM250600 01006KT P6SM FEW220 FM251000 20006KT P6SM SKC FM251700 02007KT P6SM SKC FM252000 07007KT P6SM FEW120
NOTAMs
Click for the latest NOTAMs
NOTAMs are issued by the DoD/FAA and will open in a separate window not controlled by AirNav.

 

 
 

Would you like to see your business listed on this page?

 If your business provides an interesting product or service to pilots, flight crews, aircraft, or users of the Centennial Healthcare Plaza Heliport, you should consider listing it here.  To start the listing process, click on the button below
 
Add a business
 

Other Pages about Centennial Healthcare Plaza Heliport

Update a link
 
Copyright © AirNav, LLC. All rights reserved. Privacy Policy  Contact